Time;durP1;ratioP1;P1;durP2;ratioP2;P2;SDS_P1;SDS_P2;PMS_P1;PMS_P2;Temp;Humidity;BMP_temperature;BMP_pressure;BME280_temperature;BME280_humidity;BME280_pressure;Samples;Min_cycle;Max_cycle;Signal;HPM_P1;HPM_P2
2022/03/14 00:01:01;;;;;;;;;;;21.50;35.40;;;;;;5074231;28;20273;-47
2022/03/14 00:03:28;;;;;;;;;;;21.50;35.40;;;;;;5073451;28;19924;-46
2022/03/14 00:05:55;;;;;;;;;;;21.50;35.40;;;;;;5074170;28;20321;-45
2022/03/14 00:08:24;;;;;;;;;;;21.50;35.40;;;;;;5073084;28;19931;-45
2022/03/14 00:10:52;;;;;;;;;;;21.50;35.40;;;;;;5073808;28;19924;-47
2022/03/14 00:13:19;;;;;;;;;;;21.50;35.40;;;;;;5073810;28;19931;-46
2022/03/14 00:15:46;;;;;;;;;;;21.50;35.40;;;;;;5074071;28;19978;-46
2022/03/14 00:18:13;;;;;;;;;;;21.50;35.50;;;;;;5073041;28;19924;-43
2022/03/14 00:20:44;;;;;;;;;;;21.50;35.50;;;;;;5073923;28;20304;-44
2022/03/14 00:23:11;;;;;;;;;;;21.50;35.50;;;;;;5073180;28;20373;-46
2022/03/14 00:25:39;;;;;;;;;;;21.50;35.50;;;;;;5073679;28;20372;-44
2022/03/14 00:28:06;;;;;;;;;;;21.50;35.50;;;;;;5073958;28;20335;-43
2022/03/14 00:30:33;;;;;;;;;;;21.50;35.50;;;;;;5073942;28;19924;-43
2022/03/14 00:33:00;;;;;;;;;;;21.50;35.60;;;;;;5072939;28;20380;-43
2022/03/14 00:35:27;;;;;;;;;;;21.50;35.50;;;;;;5073580;28;20422;-44
2022/03/14 00:37:54;;;;;;;;;;;21.50;35.60;;;;;;5073790;28;20019;-44
2022/03/14 00:40:21;;;;;;;;;;;21.50;35.60;;;;;;5072970;28;19932;-44
2022/03/14 00:42:52;;;;;;;;;;;21.40;35.50;;;;;;5074109;28;19930;-44
2022/03/14 00:45:21;;;;;;;;;;;21.40;35.50;;;;;;5073738;28;19931;-51
2022/03/14 00:47:50;;;;;;;;;;;21.40;35.60;;;;;;5072683;28;20399;-45
2022/03/14 00:50:17;;;;;;;;;;;21.40;35.50;;;;;;5073435;28;20019;-50
2022/03/14 00:52:44;;;;;;;;;;;21.40;35.50;;;;;;5073113;28;19978;-50
2022/03/14 00:55:11;;;;;;;;;;;21.40;35.60;;;;;;5057614;28;19929;-53
2022/03/14 00:57:37;;;;;;;;;;;21.40;35.60;;;;;;5053254;28;19936;-49
2022/03/14 01:00:05;;;;;;;;;;;21.40;35.60;;;;;;5054886;28;20323;-53
2022/03/14 01:02:32;;;;;;;;;;;21.40;35.60;;;;;;5061387;28;19925;-49
2022/03/14 01:05:00;;;;;;;;;;;21.40;35.60;;;;;;5077534;28;19946;-48
2022/03/14 01:07:27;;;;;;;;;;;21.40;35.60;;;;;;5077168;28;19925;-49
2022/03/14 01:09:53;;;;;;;;;;;21.40;35.60;;;;;;5066439;28;19924;-48
2022/03/14 01:12:20;;;;;;;;;;;21.40;35.60;;;;;;5057063;28;19982;-46
2022/03/14 01:14:48;;;;;;;;;;;21.40;35.60;;;;;;5057314;28;19925;-43
2022/03/14 01:17:15;;;;;;;;;;;21.40;35.60;;;;;;5057575;28;19986;-48
2022/03/14 01:19:42;;;;;;;;;;;21.40;35.60;;;;;;5077478;28;20011;-46
2022/03/14 01:22:10;;;;;;;;;;;21.40;35.60;;;;;;5076598;28;19968;-52
2022/03/14 01:24:42;;;;;;;;;;;21.40;35.70;;;;;;5076345;28;19950;-47
2022/03/14 01:27:09;;;;;;;;;;;21.40;35.60;;;;;;5076821;28;19928;-49
2022/03/14 01:29:37;;;;;;;;;;;21.40;35.60;;;;;;5077309;28;19924;-44
2022/03/14 01:32:05;;;;;;;;;;;21.40;35.70;;;;;;5076702;28;19932;-47
2022/03/14 01:34:32;;;;;;;;;;;21.40;35.70;;;;;;5076097;28;20024;-52
2022/03/14 01:36:59;;;;;;;;;;;21.40;35.70;;;;;;5076886;28;20346;-45
2022/03/14 01:39:26;;;;;;;;;;;21.40;35.70;;;;;;5075984;28;19931;-45
2022/03/14 01:41:55;;;;;;;;;;;21.40;35.70;;;;;;5076576;28;19957;-46
2022/03/14 01:44:22;;;;;;;;;;;21.40;35.70;;;;;;5076800;28;19925;-44
2022/03/14 01:46:52;;;;;;;;;;;21.30;35.60;;;;;;5077623;28;19934;-48
2022/03/14 01:49:19;;;;;;;;;;;21.40;35.70;;;;;;5075838;28;19924;-44
2022/03/14 01:51:47;;;;;;;;;;;21.30;35.60;;;;;;5076167;28;19970;-42
2022/03/14 01:54:14;;;;;;;;;;;21.30;35.60;;;;;;5074404;28;19963;-43
2022/03/14 01:56:43;;;;;;;;;;;21.30;35.70;;;;;;5056498;28;19928;-44
2022/03/14 01:59:10;;;;;;;;;;;21.30;35.70;;;;;;5056508;28;19975;-44
2022/03/14 02:01:37;;;;;;;;;;;21.30;36.30;;;;;;5057323;28;20067;-44
2022/03/14 02:04:08;;;;;;;;;;;21.30;35.70;;;;;;5066767;28;19924;-45
2022/03/14 02:06:35;;;;;;;;;;;21.30;35.70;;;;;;5076406;28;19924;-47
2022/03/14 02:09:03;;;;;;;;;;;21.30;35.70;;;;;;5076018;28;19963;-46
2022/03/14 02:11:30;;;;;;;;;;;21.30;35.70;;;;;;5074575;28;19924;-44
2022/03/14 02:13:57;;;;;;;;;;;21.30;35.70;;;;;;5076166;28;19925;-43
2022/03/14 02:16:24;;;;;;;;;;;21.30;35.80;;;;;;5076220;28;19925;-46
2022/03/14 02:18:51;;;;;;;;;;;21.30;35.80;;;;;;5075008;28;19935;-44
2022/03/14 02:21:18;;;;;;;;;;;21.30;35.80;;;;;;5075570;28;19978;-43
2022/03/14 02:23:45;;;;;;;;;;;21.30;35.80;;;;;;5075766;28;19924;-43
2022/03/14 02:26:12;;;;;;;;;;;21.30;35.80;;;;;;5074985;28;19925;-44
2022/03/14 02:28:39;;;;;;;;;;;21.30;35.80;;;;;;5075965;28;20339;-45
2022/03/14 02:31:06;;;;;;;;;;;21.30;35.80;;;;;;5076147;28;20001;-44
2022/03/14 02:33:34;;;;;;;;;;;21.30;36.10;;;;;;5075016;28;19990;-44
2022/03/14 02:36:00;;;;;;;;;;;21.30;35.80;;;;;;5075790;28;19925;-46
2022/03/14 02:38:27;;;;;;;;;;;21.30;35.80;;;;;;5075376;28;20380;-45
2022/03/14 02:40:54;;;;;;;;;;;21.30;35.80;;;;;;5074999;28;19968;-44
2022/03/14 02:43:24;;;;;;;;;;;21.30;35.80;;;;;;5075666;28;19929;-45
2022/03/14 02:45:53;;;;;;;;;;;21.30;35.80;;;;;;5075313;28;19932;-44
2022/03/14 02:48:22;;;;;;;;;;;21.30;35.80;;;;;;5074835;28;20284;-43
2022/03/14 02:50:53;;;;;;;;;;;21.30;35.80;;;;;;5075082;28;19975;-44
2022/03/14 02:53:20;;;;;;;;;;;21.30;35.80;;;;;;5075530;28;19931;-44
2022/03/14 02:55:47;;;;;;;;;;;21.30;35.80;;;;;;5066386;28;20389;-44
2022/03/14 02:58:14;;;;;;;;;;;21.30;35.80;;;;;;5055006;28;19924;-43
2022/03/14 03:00:42;;;;;;;;;;;21.30;35.80;;;;;;5055344;28;20350;-45
2022/03/14 03:03:12;;;;;;;;;;;21.20;35.70;;;;;;5054968;28;20388;-44
2022/03/14 03:05:43;;;;;;;;;;;21.30;35.80;;;;;;5074760;28;19924;-47
2022/03/14 03:08:11;;;;;;;;;;;21.20;35.70;;;;;;5074938;28;19936;-45
2022/03/14 03:10:40;;;;;;;;;;;21.20;35.70;;;;;;5074109;28;19954;-45
2022/03/14 03:13:09;;;;;;;;;;;21.20;35.70;;;;;;5075064;28;19924;-47
2022/03/14 03:15:37;;;;;;;;;;;21.20;35.80;;;;;;5075038;28;19979;-46
2022/03/14 03:18:08;;;;;;;;;;;21.30;35.80;;;;;;5074786;28;20348;-45
2022/03/14 03:20:36;;;;;;;;;;;21.20;36.40;;;;;;5073989;28;19931;-44
2022/03/14 03:23:03;;;;;;;;;;;21.20;35.80;;;;;;5073653;28;19925;-43
2022/03/14 03:25:29;;;;;;;;;;;21.20;35.80;;;;;;5073879;28;19928;-45
2022/03/14 03:27:56;;;;;;;;;;;21.20;35.80;;;;;;5074465;28;19928;-43
2022/03/14 03:30:23;;;;;;;;;;;21.20;35.80;;;;;;5074428;28;19947;-44
2022/03/14 03:32:50;;;;;;;;;;;21.20;35.80;;;;;;5074424;28;19978;-45
2022/03/14 03:35:18;;;;;;;;;;;21.20;35.80;;;;;;5073420;28;20372;-45
2022/03/14 03:37:45;;;;;;;;;;;21.20;35.80;;;;;;5074530;28;19972;-45
2022/03/14 03:40:12;;;;;;;;;;;21.20;35.80;;;;;;5074787;28;19974;-46
2022/03/14 03:42:39;;;;;;;;;;;21.20;35.80;;;;;;5074229;28;19924;-45
2022/03/14 03:45:06;;;;;;;;;;;21.20;35.80;;;;;;5074477;28;19968;-44
2022/03/14 03:47:33;;;;;;;;;;;21.20;35.80;;;;;;5074453;28;19970;-45
2022/03/14 03:50:00;;;;;;;;;;;21.20;35.80;;;;;;5063304;28;20019;-45
2022/03/14 03:52:27;;;;;;;;;;;21.20;35.80;;;;;;5054087;28;19951;-46
2022/03/14 03:54:54;;;;;;;;;;;21.20;35.90;;;;;;5054288;28;19983;-46
2022/03/14 03:57:21;;;;;;;;;;;21.20;35.90;;;;;;5069472;28;19929;-46
2022/03/14 03:59:48;;;;;;;;;;;21.20;35.90;;;;;;5074321;28;20269;-51
2022/03/14 04:02:19;;;;;;;;;;;21.20;35.90;;;;;;5073912;28;19974;-48
2022/03/14 04:04:47;;;;;;;;;;;21.20;35.90;;;;;;5073142;28;19967;-45
2022/03/14 04:07:23;;;;;;;;;;;21.20;35.90;;;;;;5073783;28;19925;-44
2022/03/14 04:09:55;;;;;;;;;;;21.20;35.80;;;;;;5073893;28;19924;-47
2022/03/14 04:12:24;;;;;;;;;;;21.20;35.90;;;;;;5073104;28;19924;-45
2022/03/14 04:14:56;;;;;;;;;;;21.20;35.90;;;;;;5074115;28;20295;-45
2022/03/14 04:17:27;;;;;;;;;;;21.20;35.90;;;;;;5074590;28;19924;-49
2022/03/14 04:19:54;;;;;;;;;;;21.20;35.90;;;;;;5073376;28;20330;-47
2022/03/14 04:22:21;;;;;;;;;;;21.20;35.90;;;;;;5073406;28;19924;-48
2022/03/14 04:24:48;;;;;;;;;;;21.20;35.90;;;;;;5073992;28;19986;-47
2022/03/14 04:27:15;;;;;;;;;;;21.20;35.90;;;;;;5072996;28;19931;-45
2022/03/14 04:29:42;;;;;;;;;;;21.20;35.90;;;;;;5073941;28;19929;-49
2022/03/14 04:32:09;;;;;;;;;;;21.20;35.90;;;;;;5073921;28;19954;-43
2022/03/14 04:34:36;;;;;;;;;;;21.20;35.90;;;;;;5074532;28;19972;-44
2022/03/14 04:37:03;;;;;;;;;;;21.20;35.90;;;;;;5080197;28;19925;-43
2022/03/14 04:39:30;;;;;;;;;;;21.20;35.90;;;;;;5080413;28;20028;-46
2022/03/14 04:41:57;;;;;;;;;;;21.20;35.90;;;;;;5071310;28;19972;-50
2022/03/14 04:44:24;;;;;;;;;;;21.20;36.00;;;;;;5060413;28;19960;-45
2022/03/14 04:46:51;;;;;;;;;;;21.10;35.90;;;;;;5060392;28;19979;-45
2022/03/14 04:49:18;;;;;;;;;;;21.10;35.90;;;;;;5060049;28;19947;-48
2022/03/14 04:51:50;;;;;;;;;;;21.10;35.90;;;;;;5079425;28;19978;-46
2022/03/14 04:54:17;;;;;;;;;;;21.10;35.90;;;;;;5080010;28;19970;-45
2022/03/14 04:56:44;;;;;;;;;;;21.20;35.90;;;;;;5079614;28;19925;-44
2022/03/14 04:59:11;;;;;;;;;;;21.10;35.80;;;;;;5080256;28;19993;-47
2022/03/14 05:01:39;;;;;;;;;;;21.10;35.80;;;;;;5080393;28;19925;-43
2022/03/14 05:04:06;;;;;;;;;;;21.10;35.80;;;;;;5080025;28;19978;-47
2022/03/14 05:06:33;;;;;;;;;;;21.10;35.90;;;;;;5079507;28;19924;-47
2022/03/14 05:09:01;;;;;;;;;;;21.10;35.80;;;;;;5080274;28;20288;-45
2022/03/14 05:11:28;;;;;;;;;;;21.10;35.90;;;;;;5079473;28;19967;-46
2022/03/14 05:13:55;;;;;;;;;;;21.10;35.90;;;;;;5080210;28;20272;-43
2022/03/14 05:16:22;;;;;;;;;;;21.10;35.90;;;;;;5080189;28;20019;-47
2022/03/14 05:18:50;;;;;;;;;;;21.10;35.90;;;;;;5080080;28;20327;-46
2022/03/14 05:21:18;;;;;;;;;;;21.10;35.90;;;;;;5078682;28;19951;-46
2022/03/14 05:23:45;;;;;;;;;;;21.10;35.90;;;;;;5080047;28;20355;-45
2022/03/14 05:26:12;;;;;;;;;;;21.10;35.90;;;;;;5079772;28;19976;-46
2022/03/14 05:28:39;;;;;;;;;;;21.10;35.90;;;;;;5079045;28;19978;-45
2022/03/14 05:31:06;;;;;;;;;;;21.10;35.90;;;;;;5080929;28;19924;-45
2022/03/14 05:33:33;;;;;;;;;;;21.10;35.90;;;;;;5079973;28;19931;-45
2022/03/14 05:36:01;;;;;;;;;;;21.10;35.90;;;;;;5078887;28;19924;-46
2022/03/14 05:38:28;;;;;;;;;;;21.10;35.90;;;;;;5079963;28;19960;-46
2022/03/14 05:40:55;;;;;;;;;;;21.10;35.90;;;;;;5079641;28;19959;-45
2022/03/14 05:43:27;;;;;;;;;;;21.10;35.90;;;;;;5079187;28;19963;-47
2022/03/14 05:45:54;;;;;;;;;;;21.10;35.90;;;;;;5078926;28;19951;-46
2022/03/14 05:48:22;;;;;;;;;;;21.10;35.90;;;;;;5076261;28;19960;-45
2022/03/14 05:50:48;;;;;;;;;;;21.10;35.90;;;;;;5069650;28;19925;-45
2022/03/14 05:53:15;;;;;;;;;;;21.10;35.90;;;;;;5056231;28;19960;-47
2022/03/14 05:55:42;;;;;;;;;;;21.10;35.80;;;;;;5056312;28;19972;-47
2022/03/14 05:58:09;;;;;;;;;;;21.20;35.90;;;;;;5067250;28;20380;-44
2022/03/14 06:00:36;;;;;;;;;;;21.10;35.80;;;;;;5076494;28;19964;-45
2022/03/14 06:03:03;;;;;;;;;;;21.10;35.80;;;;;;5076482;28;19947;-44
2022/03/14 06:05:30;;;;;;;;;;;21.10;35.80;;;;;;5075699;28;20390;-47
2022/03/14 06:07:57;;;;;;;;;;;21.10;35.80;;;;;;5076406;28;19929;-44
2022/03/14 06:10:25;;;;;;;;;;;21.10;35.80;;;;;;5076553;28;19925;-44
2022/03/14 06:12:52;;;;;;;;;;;21.10;35.80;;;;;;5075255;28;20399;-43
2022/03/14 06:15:19;;;;;;;;;;;21.10;35.80;;;;;;5076438;28;19951;-42
2022/03/14 06:17:46;;;;;;;;;;;21.20;35.80;;;;;;5075725;28;19925;-44
2022/03/14 06:20:13;;;;;;;;;;;21.20;35.80;;;;;;5075570;28;20019;-42
2022/03/14 06:22:41;;;;;;;;;;;21.20;35.80;;;;;;5075505;28;19978;-45
2022/03/14 06:25:08;;;;;;;;;;;21.20;35.80;;;;;;5075722;28;19924;-44
2022/03/14 06:27:36;;;;;;;;;;;21.20;35.80;;;;;;5075208;28;19978;-43
2022/03/14 06:30:04;;;;;;;;;;;21.20;35.80;;;;;;5075550;28;19925;-50
2022/03/14 06:32:35;;;;;;;;;;;21.20;35.80;;;;;;5075646;28;19931;-48
2022/03/14 06:35:03;;;;;;;;;;;21.20;35.80;;;;;;5075548;28;19928;-52
2022/03/14 06:37:30;;;;;;;;;;;21.20;35.80;;;;;;5075021;28;19982;-51
2022/03/14 06:39:57;;;;;;;;;;;21.20;35.70;;;;;;5075649;28;19925;-46
2022/03/14 06:42:25;;;;;;;;;;;21.20;35.70;;;;;;5074896;28;19947;-48
2022/03/14 06:44:52;;;;;;;;;;;21.20;35.70;;;;;;5075330;28;19951;-48
2022/03/14 06:47:19;;;;;;;;;;;21.20;35.70;;;;;;5075604;28;19928;-43
2022/03/14 06:49:46;;;;;;;;;;;21.20;35.70;;;;;;5075247;28;19954;-45
2022/03/14 06:52:13;;;;;;;;;;;21.20;35.70;;;;;;5074140;28;19925;-47
2022/03/14 06:54:40;;;;;;;;;;;21.20;35.70;;;;;;5075191;28;19925;-44
2022/03/14 06:57:08;;;;;;;;;;;21.30;35.70;;;;;;5075478;28;19970;-47
2022/03/14 06:59:35;;;;;;;;;;;21.30;35.70;;;;;;5074119;28;19925;-41
2022/03/14 07:02:03;;;;;;;;;;;21.30;35.60;;;;;;5074937;28;20445;-44
2022/03/14 07:04:31;;;;;;;;;;;21.30;35.60;;;;;;5075050;28;19924;-48
2022/03/14 07:07:03;;;;;;;;;;;21.30;35.50;;;;;;5074022;28;19925;-48
2022/03/14 07:09:31;;;;;;;;;;;21.30;35.50;;;;;;5075084;28;20342;-49
2022/03/14 07:11:59;;;;;;;;;;;21.30;35.50;;;;;;5074698;28;19925;-45
2022/03/14 07:14:25;;;;;;;;;;;21.30;35.40;;;;;;5074336;28;19924;-47
2022/03/14 07:16:52;;;;;;;;;;;21.30;35.40;;;;;;5074982;28;19928;-51
2022/03/14 07:19:20;;;;;;;;;;;21.30;35.40;;;;;;5074487;28;20300;-49
2022/03/14 07:21:47;;;;;;;;;;;21.40;35.50;;;;;;5073428;28;19954;-45
2022/03/14 07:24:14;;;;;;;;;;;21.40;35.50;;;;;;5074691;28;19924;-48
2022/03/14 07:26:41;;;;;;;;;;;21.30;35.40;;;;;;5074817;28;19970;-50
2022/03/14 07:29:07;;;;;;;;;;;21.40;35.50;;;;;;5073658;28;20437;-49
2022/03/14 07:31:37;;;;;;;;;;;21.40;35.40;;;;;;5074734;28;19924;-48
2022/03/14 07:34:04;;;;;;;;;;;21.40;35.40;;;;;;5074669;28;19924;-48
2022/03/14 07:36:34;;;;;;;;;;;21.40;35.40;;;;;;5073766;28;20338;-49
2022/03/14 07:39:01;;;;;;;;;;;21.40;35.40;;;;;;5074487;28;19924;-44
2022/03/14 07:41:28;;;;;;;;;;;21.40;35.40;;;;;;5074500;28;19924;-46
2022/03/14 07:43:55;;;;;;;;;;;21.40;35.40;;;;;;5073586;28;20287;-48
2022/03/14 07:46:22;;;;;;;;;;;21.40;35.40;;;;;;5074696;28;19984;-47
2022/03/14 07:48:49;;;;;;;;;;;21.40;35.40;;;;;;5074345;28;19967;-48
2022/03/14 07:51:16;;;;;;;;;;;21.40;35.40;;;;;;5073643;28;19925;-49
2022/03/14 07:53:43;;;;;;;;;;;21.40;35.40;;;;;;5074033;28;20319;-51
2022/03/14 07:56:11;;;;;;;;;;;21.40;35.30;;;;;;5074296;28;19924;-53
2022/03/14 07:58:38;;;;;;;;;;;21.40;35.30;;;;;;5069233;28;20314;-50
2022/03/14 08:01:05;;;;;;;;;;;21.40;35.30;;;;;;5053897;28;19979;-47
2022/03/14 08:03:32;;;;;;;;;;;21.40;35.30;;;;;;5054156;28;19928;-45
2022/03/14 08:06:00;;;;;;;;;;;21.40;35.30;;;;;;5053825;28;20019;-47
2022/03/14 08:08:28;;;;;;;;;;;21.50;35.30;;;;;;5070618;28;19947;-48
2022/03/14 08:10:54;;;;;;;;;;;21.50;35.30;;;;;;5073326;28;20453;-46
2022/03/14 08:13:21;;;;;;;;;;;21.50;35.20;;;;;;5072771;28;19924;-45
2022/03/14 08:15:48;;;;;;;;;;;21.50;35.20;;;;;;5074069;28;20015;-51
2022/03/14 08:18:16;;;;;;;;;;;21.50;35.20;;;;;;5073679;28;19924;-47
2022/03/14 08:20:43;;;;;;;;;;;21.50;35.20;;;;;;5073320;28;19975;-49
2022/03/14 08:23:10;;;;;;;;;;;21.50;35.10;;;;;;5072782;28;19925;-51
2022/03/14 08:25:37;;;;;;;;;;;21.50;35.10;;;;;;5074486;28;19959;-50
2022/03/14 08:28:04;;;;;;;;;;;21.50;35.00;;;;;;5073597;28;19924;-49
2022/03/14 08:30:31;;;;;;;;;;;21.50;35.00;;;;;;5073170;28;19924;-47
2022/03/14 08:32:58;;;;;;;;;;;21.50;34.90;;;;;;5073881;28;19924;-46
2022/03/14 08:35:27;;;;;;;;;;;21.60;35.00;;;;;;5073839;28;19963;-45
2022/03/14 08:37:55;;;;;;;;;;;21.60;35.00;;;;;;5072730;28;19924;-46
2022/03/14 08:40:23;;;;;;;;;;;21.60;34.90;;;;;;5073940;28;20007;-47
2022/03/14 08:42:51;;;;;;;;;;;21.60;34.90;;;;;;5073764;28;19978;-45
2022/03/14 08:45:18;;;;;;;;;;;21.60;34.80;;;;;;5072588;28;19978;-45
2022/03/14 08:47:45;;;;;;;;;;;21.60;34.80;;;;;;5073481;28;19928;-49
2022/03/14 08:50:13;;;;;;;;;;;21.60;34.70;;;;;;5074451;28;19971;-48
2022/03/14 08:52:41;;;;;;;;;;;21.60;34.70;;;;;;5072523;28;20061;-45
2022/03/14 08:55:08;;;;;;;;;;;21.60;35.30;;;;;;5073593;28;19959;-51
2022/03/14 08:57:39;;;;;;;;;;;21.60;34.70;;;;;;5073847;28;19986;-49
2022/03/14 09:00:07;;;;;;;;;;;21.70;34.70;;;;;;5072800;28;19925;-47
2022/03/14 09:02:34;;;;;;;;;;;21.70;34.70;;;;;;5073222;28;19925;-47
2022/03/14 09:05:01;;;;;;;;;;;21.70;34.60;;;;;;5073216;28;19928;-50
2022/03/14 09:07:29;;;;;;;;;;;21.70;34.60;;;;;;5072442;28;19967;-48
2022/03/14 09:10:01;;;;;;;;;;;21.70;34.50;;;;;;5073321;28;20429;-48
2022/03/14 09:12:28;;;;;;;;;;;21.70;34.50;;;;;;5073185;28;20380;-45
2022/03/14 09:14:55;;;;;;;;;;;21.80;34.50;;;;;;5072690;28;19968;-52
2022/03/14 09:17:22;;;;;;;;;;;21.80;34.40;;;;;;5073453;28;20272;-48
2022/03/14 09:19:49;;;;;;;;;;;21.80;34.30;;;;;;5073376;28;19925;-51
2022/03/14 09:22:18;;;;;;;;;;;21.80;34.30;;;;;;5073678;28;19952;-48
2022/03/14 09:24:47;;;;;;;;;;;21.90;34.30;;;;;;5077394;28;19925;-46
2022/03/14 09:27:14;;;;;;;;;;;21.90;34.30;;;;;;5076749;28;19924;-44
2022/03/14 09:29:42;;;;;;;;;;;21.90;34.20;;;;;;5072420;28;19925;-46
2022/03/14 09:32:10;;;;;;;;;;;22.00;34.20;;;;;;5056733;28;19925;-47
2022/03/14 09:34:37;;;;;;;;;;;22.00;34.20;;;;;;5056698;28;20392;-44
2022/03/14 09:37:04;;;;;;;;;;;22.00;34.10;;;;;;5056942;28;19979;-44
2022/03/14 09:39:32;;;;;;;;;;;22.10;34.10;;;;;;5073808;28;19924;-44
2022/03/14 09:42:00;;;;;;;;;;;22.10;34.10;;;;;;5077151;28;20023;-45
2022/03/14 09:44:28;;;;;;;;;;;22.10;34.00;;;;;;5075750;28;19924;-46
2022/03/14 09:46:58;;;;;;;;;;;22.10;34.00;;;;;;5076795;28;20346;-46
2022/03/14 09:49:27;;;;;;;;;;;22.10;33.90;;;;;;5076704;28;19967;-45
2022/03/14 09:51:54;;;;;;;;;;;22.20;34.00;;;;;;5076168;28;19978;-44
2022/03/14 09:54:21;;;;;;;;;;;22.20;33.90;;;;;;5075914;28;20011;-43
2022/03/14 09:56:57;;;;;;;;;;;22.20;33.80;;;;;;5076297;28;19925;-45
2022/03/14 09:59:24;;;;;;;;;;;22.30;33.80;;;;;;5076142;28;19978;-45
2022/03/14 10:01:52;;;;;;;;;;;22.30;33.80;;;;;;5056889;28;19925;-44
2022/03/14 10:04:19;;;;;;;;;;;22.30;33.70;;;;;;5056692;28;19972;-44
2022/03/14 10:06:46;;;;;;;;;;;22.40;33.80;;;;;;5056424;28;19925;-46
2022/03/14 10:09:13;;;;;;;;;;;22.40;33.70;;;;;;5068596;28;19982;-43
2022/03/14 10:11:41;;;;;;;;;;;22.40;33.60;;;;;;5076008;28;19925;-43
2022/03/14 10:14:10;;;;;;;;;;;22.50;33.70;;;;;;5059411;28;19990;-44
2022/03/14 10:16:38;;;;;;;;;;;22.50;33.60;;;;;;5075104;28;20458;-47
2022/03/14 10:19:07;;;;;;;;;;;22.50;33.60;;;;;;5075779;28;20388;-51
2022/03/14 10:21:35;;;;;;;;;;;22.50;33.60;;;;;;5075601;28;20015;-49
2022/03/14 10:24:08;;;;;;;;;;;22.50;33.60;;;;;;5074677;28;20226;-50
2022/03/14 10:26:37;;;;;;;;;;;22.50;34.30;;;;;;5075710;28;19974;-49
2022/03/14 10:29:09;;;;;;;;;;;22.50;33.70;;;;;;5076593;28;19967;-52
2022/03/14 10:31:38;;;;;;;;;;;22.50;33.70;;;;;;5075342;28;20366;-52
2022/03/14 10:34:11;;;;;;;;;;;22.40;33.70;;;;;;5075074;28;19954;-51
2022/03/14 10:36:42;;;;;;;;;;;22.50;33.80;;;;;;5075574;28;20383;-48
2022/03/14 10:39:14;;;;;;;;;;;22.50;33.80;;;;;;5074662;28;19932;-48
2022/03/14 10:41:41;;;;;;;;;;;22.50;33.80;;;;;;5075795;28;19960;-50
2022/03/14 10:44:24;;;;;;;;;;;22.50;33.80;;;;;;5075725;28;19924;-47
2022/03/14 10:46:51;;;;;;;;;;;22.50;33.80;;;;;;5074680;28;20465;-51
2022/03/14 10:49:25;;;;;;;;;;;22.50;33.80;;;;;;5075586;28;19968;-46
2022/03/14 10:51:53;;;;;;;;;;;22.50;33.80;;;;;;5074992;28;20346;-51
2022/03/14 10:54:20;;;;;;;;;;;22.50;33.80;;;;;;5065419;28;19975;-50
2022/03/14 10:57:20;;;;;;;;;;;22.50;33.80;;;;;;5055448;28;19929;-44
2022/03/14 10:59:51;;;;;;;;;;;22.50;33.80;;;;;;5013525;28;19929;-46
2022/03/14 11:02:22;;;;;;;;;;;22.50;33.80;;;;;;5030347;28;19933;-47
2022/03/14 11:04:50;;;;;;;;;;;22.60;33.90;;;;;;5033086;28;19932;-50
2022/03/14 11:07:19;;;;;;;;;;;22.60;33.90;;;;;;5033283;28;19925;-49
2022/03/14 11:09:50;;;;;;;;;;;22.60;33.90;;;;;;5032389;28;19925;-48
2022/03/14 11:12:18;;;;;;;;;;;22.60;33.90;;;;;;5032952;28;19929;-48
2022/03/14 11:14:56;;;;;;;;;;;22.60;33.90;;;;;;5032795;28;20324;-53
2022/03/14 11:17:27;;;;;;;;;;;22.60;33.90;;;;;;5032044;28;19929;-51
2022/03/14 11:19:54;;;;;;;;;;;22.60;33.90;;;;;;5032723;28;19971;-47
2022/03/14 11:22:23;;;;;;;;;;;22.70;34.00;;;;;;5032340;28;19925;-44
2022/03/14 11:24:51;;;;;;;;;;;22.70;34.00;;;;;;5031975;28;20023;-45
2022/03/14 11:27:22;;;;;;;;;;;22.70;34.00;;;;;;5032635;28;19925;-44
2022/03/14 11:29:50;;;;;;;;;;;22.70;34.00;;;;;;5032866;28;20348;-43
2022/03/14 11:32:18;;;;;;;;;;;22.70;33.90;;;;;;5031755;28;19979;-46
2022/03/14 11:35:01;;;;;;;;;;;22.70;33.90;;;;;;5039886;28;19924;-46
2022/03/14 11:37:30;;;;;;;;;;;22.70;34.00;;;;;;5036869;28;20016;-45
2022/03/14 11:39:58;;;;;;;;;;;22.70;34.00;;;;;;5064783;28;19936;-42
2022/03/14 11:42:25;;;;;;;;;;;22.70;34.00;;;;;;5074227;28;19924;-43
2022/03/14 11:44:53;;;;;;;;;;;22.80;34.20;;;;;;5073657;28;20358;-45
2022/03/14 11:47:21;;;;;;;;;;;22.80;34.20;;;;;;5073761;28;20372;-45
2022/03/14 11:49:49;;;;;;;;;;;22.80;34.20;;;;;;5074431;28;19938;-45
2022/03/14 11:52:20;;;;;;;;;;;22.80;34.20;;;;;;5074059;28;19994;-44
2022/03/14 11:55:00;;;;;;;;;;;22.80;34.20;;;;;;5073230;28;19924;-45
2022/03/14 11:57:35;;;;;;;;;;;22.80;34.10;;;;;;5074596;28;19924;-47
2022/03/14 12:00:21;;;;;;;;;;;22.90;34.20;;;;;;5073900;28;19928;-43
2022/03/14 12:02:49;;;;;;;;;;;22.90;34.10;;;;;;5073195;28;19963;-45
2022/03/14 12:05:22;;;;;;;;;;;22.90;34.10;;;;;;5056216;28;19967;-45
2022/03/14 12:07:51;;;;;;;;;;;22.90;34.10;;;;;;5074132;28;19977;-46
2022/03/14 12:10:31;;;;;;;;;;;22.90;34.10;;;;;;5073317;28;20303;-46
2022/03/14 12:13:01;;;;;;;;;;;23.00;34.20;;;;;;5074102;28;19924;-45
2022/03/14 12:15:41;;;;;;;;;;;22.90;34.10;;;;;;5073777;28;19925;-47
2022/03/14 12:18:26;;;;;;;;;;;22.90;34.10;;;;;;5073047;28;19924;-45
2022/03/14 12:21:03;;;;;;;;;;;23.00;34.20;;;;;;5073330;28;19932;-45
2022/03/14 12:23:34;;;;;;;;;;;23.00;34.20;;;;;;5073886;28;19931;-47
2022/03/14 12:26:02;;;;;;;;;;;23.00;34.20;;;;;;5073214;28;19924;-44
2022/03/14 12:28:31;;;;;;;;;;;23.00;34.20;;;;;;5073975;28;19959;-45
2022/03/14 12:31:04;;;;;;;;;;;23.00;34.20;;;;;;5073945;28;19973;-43
2022/03/14 12:33:36;;;;;;;;;;;23.00;34.10;;;;;;5072802;28;19955;-45
2022/03/14 12:36:22;;;;;;;;;;;23.10;34.20;;;;;;5073624;28;19977;-47
2022/03/14 12:39:12;;;;;;;;;;;23.10;34.20;;;;;;5073570;28;19932;-47
2022/03/14 12:41:41;;;;;;;;;;;23.10;34.10;;;;;;5073068;28;19999;-49
2022/03/14 12:44:21;;;;;;;;;;;23.10;34.10;;;;;;5073866;28;19924;-48
2022/03/14 12:46:50;;;;;;;;;;;23.10;34.10;;;;;;5072853;28;19986;-47
2022/03/14 12:49:24;;;;;;;;;;;23.10;34.20;;;;;;5073714;28;19924;-45
2022/03/14 12:52:11;;;;;;;;;;;23.10;34.20;;;;;;5073476;28;20016;-47
2022/03/14 12:54:38;;;;;;;;;;;23.10;34.20;;;;;;5072822;28;19925;-51
2022/03/14 12:57:06;;;;;;;;;;;23.10;34.20;;;;;;5076456;28;19982;-45
2022/03/14 12:59:42;;;;;;;;;;;23.10;34.20;;;;;;5077659;28;19954;-46
2022/03/14 13:02:12;;;;;;;;;;;23.10;34.20;;;;;;5076449;28;19970;-45
2022/03/14 13:04:41;;;;;;;;;;;23.10;34.30;;;;;;5077661;28;19928;-44
2022/03/14 13:07:08;;;;;;;;;;;23.10;34.30;;;;;;5077560;28;20293;-45
2022/03/14 13:09:49;;;;;;;;;;;23.10;34.30;;;;;;5076819;28;19932;-44
2022/03/14 13:12:16;;;;;;;;;;;23.10;34.30;;;;;;5077491;28;20280;-47
2022/03/14 13:14:43;;;;;;;;;;;23.10;34.30;;;;;;5077410;28;19974;-46
2022/03/14 13:17:10;;;;;;;;;;;23.10;34.40;;;;;;5076568;28;19971;-48
2022/03/14 13:19:38;;;;;;;;;;;23.10;34.30;;;;;;5077266;28;19924;-44
2022/03/14 13:22:12;;;;;;;;;;;23.10;34.40;;;;;;5076606;28;19928;-50
2022/03/14 13:24:43;;;;;;;;;;;23.10;34.40;;;;;;5077452;28;19924;-49
2022/03/14 13:27:10;;;;;;;;;;;23.00;34.30;;;;;;5076083;28;19925;-53
2022/03/14 13:29:40;;;;;;;;;;;23.10;34.50;;;;;;5077138;28;19964;-52
2022/03/14 13:32:16;;;;;;;;;;;23.10;34.50;;;;;;5076613;28;19970;-48
2022/03/14 13:34:43;;;;;;;;;;;23.00;34.40;;;;;;5076677;28;19931;-47
2022/03/14 13:37:11;;;;;;;;;;;23.00;34.50;;;;;;5076657;28;19973;-49
2022/03/14 13:39:48;;;;;;;;;;;23.00;34.50;;;;;;5076933;28;19925;-49
2022/03/14 13:42:15;;;;;;;;;;;23.00;34.50;;;;;;5076117;28;20378;-48
2022/03/14 13:44:42;;;;;;;;;;;23.00;34.50;;;;;;5076810;28;19978;-47
2022/03/14 13:47:08;;;;;;;;;;;23.00;34.50;;;;;;5075632;28;19954;-50
2022/03/14 13:49:35;;;;;;;;;;;23.00;34.60;;;;;;5076640;28;19933;-47
2022/03/14 13:52:03;;;;;;;;;;;23.00;34.60;;;;;;5076054;28;19978;-47
2022/03/14 13:54:32;;;;;;;;;;;23.00;34.60;;;;;;5076603;28;20319;-46
2022/03/14 13:57:05;;;;;;;;;;;23.00;34.60;;;;;;5075507;28;19924;-48
2022/03/14 13:59:34;;;;;;;;;;;23.00;34.70;;;;;;5076233;28;20019;-48
2022/03/14 14:02:03;;;;;;;;;;;23.00;34.70;;;;;;5076169;28;19924;-45
2022/03/14 14:04:30;;;;;;;;;;;23.00;34.70;;;;;;5075764;28;19931;-47
2022/03/14 14:07:19;;;;;;;;;;;23.00;34.80;;;;;;5075849;28;19925;-51
2022/03/14 14:10:01;;;;;;;;;;;23.00;34.80;;;;;;5076097;28;20384;-50
2022/03/14 14:12:30;;;;;;;;;;;23.00;34.70;;;;;;5075225;28;19928;-45
2022/03/14 14:14:57;;;;;;;;;;;23.00;34.70;;;;;;5075882;28;19925;-47
2022/03/14 14:17:25;;;;;;;;;;;23.00;34.80;;;;;;5076284;28;19970;-48
2022/03/14 14:20:02;;;;;;;;;;;23.00;34.80;;;;;;5075751;28;19924;-44
2022/03/14 14:22:40;;;;;;;;;;;23.00;34.80;;;;;;5075645;28;19978;-52
2022/03/14 14:25:13;;;;;;;;;;;23.00;34.80;;;;;;5075900;28;19924;-46